Forest Dale, Vermont
Current Conditions -  °F | °C
As of 8:15 AM on Wednesday 22 Oct 2014 (Local Time) from K6B0 Reporting Station
Overcast Overcast  
Wind Chill: 42°   Ceiling: 300
Heat Index: 46°   Visibility: 7mi
Dew Point: 46°   Wind: 8mph
Humidity: 100%   Direction: 10°N
Pressure: 30.13"   Gusts: NA
Location:  43.83°N, 73.05°W
Report Text: K6B0 221215Z AUTO 01007KT 7SM OVC003 08/08 A3013 RMK AO2 T00800080
Loading
Personal Weather Stations






























Interactive Weather Map
Tropical Storm Tracking
New forecast layout! Learn more

10-Day Weather Forecast

Advertisements
Track Severe Weather on mobile